メインページ
METAR-TAF:

METAR-TAF

空港 :

プラハ, チェコ共和国

ヴァーツラフ・ハヴェル・プラハ国際空港

緯度: 50-06N, 経度: 014-15E, 海抜: 365m

現時点の気象観測

当レポートは40分前の14:00(UTC)に作成
北西の風 8kt
気温 0°C
湿度 86%
気圧 1013 hPa
視程10km以上
高度2500ftの雲はほとんどない

METAR: LKPR 211400Z 31008KT 9999 FEW025 00/M02 Q1013 R24/29//95 R30/29//95 NOSIG

時間: 15:40 (14:40 UTC)

予報

当レポートは3時間40分前の11:00(UTC)に作成
予報は21日の 12時(UTC)から 22日の 18時(UTC)まで有効
北/北西の風 8kt
視程: 5000m
高度500ftの千切れ雲あり
21日の 12時(UTC)から 21日の 15時(UTC)まで徐々に
視程: 7000m
高度1500ftの千切れ雲あり
21日の 15時(UTC)から 21日の 18時(UTC)まで徐々に
視程10km以上
高度3000ftの雲は散在している
21日の 19時(UTC)から 21日の 22時(UTC)まで徐々に
変向風 2kt
21日の 22時(UTC)から 22日の 06時(UTC)まで一時的に
視程: 3000m
高度600ftの雲は散在している
22日の 04時(UTC)から 22日の 07時(UTC)まで徐々に
の風 8kt
22日の 10時(UTC)から 22日の 13時(UTC)まで徐々に
高度1500ftの千切れ雲あり
22日の 13時(UTC)から 22日の 18時(UTC)まで一時的に
視程: 5000m
高度1000ftの千切れ雲あり
小雨

TAF: LKPR 211100Z 2112/2218 33008KT 5000 BR BKN005 BECMG 2112/2115 7000 BKN015 BECMG 2115/2118 9999 SCT030 BECMG 2119/2122 VRB02KT TEMPO 2122/2206 3000 BR SCT006 BECMG 2204/2207 17008KT BECMG 2210/2213 BKN015 TEMPO 2213/2218 5000 -RA BKN010

4,000以上の空港の気象観測と天気予報(METAR報とTAF報)

利用可能な観測所は地図上に黄色い丸と赤い丸で示す。

丸の上にカーソルを重ねると観測所名を参照できる。

次にクリックすると気象観測と天気予報を参照できる。

マップの切り替え:黒色「×」印の緑ボタンをクリックして拡大、「-」印の緑ボタンをクリックして縮小、緑色の三角印をクリックして隣りの地図に切り替え


METAR-TAF: